Flight Track Log - Related Links

Times and Time Zones

All times are in EDT time to prevent confusion due to time zone crossing. See the FLG3729 flight status page for this flight to view local times or setup timezone preferences in your user account.

Time Position Orientation Groundspeed Altitude Reporting Facility
EDT Latitude Longitude Course Direction KTS MPH feet Rate Location/Type
Mon 06:13:02 AM 42.7256 -73.8053 304° West 147 169 1,000  Level Boston Center
Mon 06:14:09 AM 42.7022 -73.8469 233° Southwest 182 209 2,600 1,594 Climbing Boston Center
Mon 06:15:10 AM 42.7264 -73.9211 294° West 229 264 4,400 1,868 Climbing Boston Center
Mon 06:15:55 AM 42.7486 -73.9753 299° West 250 288 5,900 2,286 Climbing Boston Center
Mon 06:16:00 AM 42.8297 -74.3078 281° West  Level FlightAware Approximate
Mon 06:16:55 AM 42.7764 -74.0667 293° West 278 320 8,400  Level Boston Center
Mon 06:17:00 AM 42.8507 -74.4374 283° West  Level FlightAware Approximate
Mon 06:17:54 AM 42.8022 -74.1464 294° West 269 310 10,400  Level Boston Center
Mon 06:18:00 AM 42.8809 -74.5617 304° West  Level FlightAware Approximate
Mon 06:18:55 AM 42.8419 -74.2806 292° West 307 353 11,600  Level Boston Center
Mon 06:19:55 AM 42.8756 -74.3894 293° West 340 391 13,000 1,563 Climbing Boston Center
Mon 06:20:54 AM 42.9169 -74.5239 293° West 353 406 14,700 1,513 Climbing Boston Center
Mon 06:21:54 AM 42.9356 -74.6408 282° West 358 412 16,000 1,200 Climbing Boston Center
Mon 06:22:54 AM 42.9408 -74.7942 273° West 372 428 17,100 942 Climbing Boston Center
Mon 06:23:55 AM 42.9422 -74.9275 271° West 378 435 17,900 1,000 Climbing Boston Center
Mon 06:24:54 AM 42.9453 -75.0694 272° West 383 441 19,100 1,311 Climbing Boston Center
Mon 06:25:54 AM 42.9461 -75.2114 271° West 383 441 20,500 1,250 Climbing Boston Center
Mon 06:26:54 AM 42.9467 -75.3533 270° West 383 441 21,600 1,000 Climbing Boston Center
Mon 06:27:54 AM 42.9492 -75.4953 271° West 383 441 22,500 850 Climbing Boston Center
Mon 06:28:54 AM 42.9514 -75.6403 271° West 383 441 23,300 744 Climbing Boston Center
Mon 06:29:55 AM 42.9514 -75.7906 270° West 383 441 24,000 694 Climbing Boston Center
Mon 06:30:55 AM 42.9531 -75.9381 271° West 388 447 24,700 706 Climbing Boston Center
Mon 06:31:54 AM 42.9547 -76.0886 271° West 393 452 25,400 750 Climbing Boston Center
Mon 06:33:59 AM 42.9522 -76.4186 270° West 395 455 27,000 778 Climbing Cleveland Center
Mon 06:34:59 AM 42.9514 -76.5719 270° West 406 467 27,800 500 Climbing Cleveland Center
Mon 06:35:59 AM 42.9514 -76.6967 270° West 406 467 28,000 100 Climbing Cleveland Center
Mon 06:36:59 AM 42.9508 -76.8700 270° West 411 473 28,000  Level Cleveland Center
Mon 06:37:59 AM 42.9497 -77.0317 270° West 424 488 28,000  Level Cleveland Center
Mon 06:38:59 AM 42.9483 -77.1964 269° West 429 494 28,000  Level Cleveland Center
Mon 06:39:59 AM 42.9453 -77.3839 269° West 442 509 28,000  Level Cleveland Center
Mon 06:40:59 AM 42.9142 -77.5442 255° West 442 509 28,000  Level Cleveland Center
Mon 06:41:59 AM 42.8831 -77.7072 255° West 448 516 28,000  Level Cleveland Center
Mon 06:42:59 AM 42.8494 -77.8731 255° West 453 521 28,000  Level Cleveland Center
Mon 06:43:59 AM 42.8200 -78.0383 256° West 453 521 28,000  Level Cleveland Center
Mon 06:44:59 AM 42.7983 -78.2006 260° West 452 520 28,000  Level Cleveland Center
Mon 06:45:59 AM 42.7956 -78.3733 269° West 452 520 28,000  Level Cleveland Center
Mon 06:46:59 AM 42.7903 -78.5406 268° West 452 520 28,000  Level Cleveland Center
Mon 06:47:59 AM 42.7869 -78.7103 269° West 452 520 28,000  Level Cleveland Center
Mon 06:48:59 AM 42.7792 -78.8831 267° West 452 520 28,000  Level Cleveland Center
Mon 06:49:59 AM 42.7792 -79.0444 270° West 452 520 28,000  Level Cleveland Center
Mon 06:50:59 AM 42.7731 -79.2142 267° West 446 513 28,000  Level Cleveland Center
Mon 06:51:59 AM 42.7708 -79.3839 269° West 446 513 28,000  Level Cleveland Center
Mon 06:52:59 AM 42.7642 -79.5511 267° West 446 513 28,000  Level Cleveland Center
Mon 06:53:59 AM 42.7592 -79.7150 268° West 440 506 28,000  Level Cleveland Center
Mon 06:54:59 AM 42.7519 -79.8847 267° West 440 506 28,000  Level Cleveland Center
Mon 06:55:59 AM 42.7403 -80.0489 265° West 440 506 28,000  Level Cleveland Center
Mon 06:56:59 AM 42.7347 -80.2186 268° West 440 506 28,000  Level Cleveland Center
Mon 06:57:59 AM 42.7289 -80.3853 267° West 440 506 28,000  Level Cleveland Center
Mon 06:58:59 AM 42.7208 -80.5522 266° West 440 506 28,000 -50 Level Cleveland Center
Mon 06:59:59 AM 42.7144 -80.7217 267° West 445 512 27,900 -850 Descending Cleveland Center
Mon 07:00:59 AM 42.7078 -80.8883 267° West 445 512 26,300 -1,550 Descending Cleveland Center
Mon 07:01:59 AM 42.6886 -81.0464 261° West 445 512 24,800 -1,300 Descending Cleveland Center
Mon 07:02:59 AM 42.6733 -81.2044 263° West 430 495 23,700 -1,100 Descending Cleveland Center
Mon 07:03:59 AM 42.6558 -81.3397 260° West 424 488 22,600 -1,100 Descending Cleveland Center
Mon 07:04:59 AM 42.6381 -81.4892 261° West 414 476 21,500 -1,050 Descending Cleveland Center
Mon 07:05:59 AM 42.6200 -81.6356 261° West 402 463 20,500 -750 Descending Cleveland Center
Mon 07:06:59 AM 42.6042 -81.7764 261° West 389 448 20,000 -250 Descending Cleveland Center
Mon 07:07:59 AM 42.5858 -81.9114 260° West 384 442 20,000 -900 Level Cleveland Center
Mon 07:08:59 AM 42.5675 -82.0519 260° West 384 442 18,200 -1,881 Descending Cleveland Center
Mon 07:09:57 AM 42.5531 -82.1983 262° West 364 419 16,300 -1,650 Descending Cleveland Center
Mon 07:10:59 AM 42.5367 -82.3217 260° West 373 429 14,900 -1,525 Descending Cleveland Center
Mon 07:11:59 AM 42.5200 -82.4508 260° West 367 422 13,200 -1,450 Descending Cleveland Center
Mon 07:12:59 AM 42.4972 -82.5742 256° West 361 415 12,000 -1,350 Descending Cleveland Center
Mon 07:13:59 AM 42.4597 -82.6800 244° Southwest 335 386 10,500 -1,500 Descending Cleveland Center
Mon 07:14:59 AM 42.4392 -82.7778 254° West 303 349 9,000 -1,600 Descending Cleveland Center
Mon 07:15:59 AM 42.4269 -82.8786 261° West 280 322 7,300 -1,500 Descending Cleveland Center
Mon 07:16:59 AM 42.4208 -82.9711 265° West 268 308 6,000 -850 Descending Cleveland Center
Mon 07:17:59 AM 42.4083 -83.0692 260° West 268 308 5,600 -667 Descending Cleveland Center
Mon 07:18:29 AM 42.3967 -83.1306 256° West 257 296 5,000 -600 Descending Cleveland Center
Mon 07:18:59 AM 42.3833 -83.1581 237° Southwest 263 303 5,000 -787 Level Cleveland Center
Mon 07:19:30 AM 42.3594 -83.2078 237° Southwest 242 278 4,200 -1,304 Descending Cleveland Center
Mon 07:20:31 AM 42.3164 -83.2622 223° Southwest 195 224 3,000 -1,180 Descending Cleveland Center

Login

Don't have an account? Register now (free) for customized features, flight alerts, and more!